sensor_id;sensor_type;location;lat;lon;timestamp;pressure;altitude;pressure_sealevel;temperature;humidity
6680;BME280;3376;42.664;23.346;2023-02-01T00:00:15;94614.31;;;2.36;100.00
6680;BME280;3376;42.664;23.346;2023-02-01T00:02:42;94613.50;;;2.35;100.00
6680;BME280;3376;42.664;23.346;2023-02-01T00:05:09;94617.72;;;2.25;100.00
6680;BME280;3376;42.664;23.346;2023-02-01T00:07:37;94614.22;;;2.26;100.00
6680;BME280;3376;42.664;23.346;2023-02-01T00:10:05;94610.19;;;2.24;100.00
6680;BME280;3376;42.664;23.346;2023-02-01T00:12:33;94611.81;;;2.25;100.00
6680;BME280;3376;42.664;23.346;2023-02-01T00:14:59;94603.94;;;2.17;100.00
6680;BME280;3376;42.664;23.346;2023-02-01T00:17:27;94606.13;;;2.21;100.00
6680;BME280;3376;42.664;23.346;2023-02-01T00:19:54;94604.78;;;2.17;100.00
6680;BME280;3376;42.664;23.346;2023-02-01T00:22:21;94603.75;;;2.09;100.00
6680;BME280;3376;42.664;23.346;2023-02-01T00:24:47;94606.06;;;2.12;100.00
6680;BME280;3376;42.664;23.346;2023-02-01T00:27:14;94610.19;;;2.24;100.00
6680;BME280;3376;42.664;23.346;2023-02-01T00:29:45;94588.75;;;2.15;100.00
6680;BME280;3376;42.664;23.346;2023-02-01T00:32:12;94597.66;;;2.21;100.00
6680;BME280;3376;42.664;23.346;2023-02-01T00:34:40;94603.66;;;2.31;100.00
6680;BME280;3376;42.664;23.346;2023-02-01T00:37:07;94601.56;;;2.25;100.00
6680;BME280;3376;42.664;23.346;2023-02-01T00:39:33;94598.41;;;2.32;100.00
6680;BME280;3376;42.664;23.346;2023-02-01T00:42:00;94597.09;;;2.17;100.00
6680;BME280;3376;42.664;23.346;2023-02-01T00:44:28;94580.22;;;2.05;100.00
6680;BME280;3376;42.664;23.346;2023-02-01T00:46:58;94568.53;;;1.92;100.00
6680;BME280;3376;42.664;23.346;2023-02-01T00:49:25;94597.75;;;1.99;100.00
6680;BME280;3376;42.664;23.346;2023-02-01T00:51:53;94600.22;;;1.89;100.00
6680;BME280;3376;42.664;23.346;2023-02-01T00:54:20;94598.44;;;2.01;100.00
6680;BME280;3376;42.664;23.346;2023-02-01T00:56:46;94604.06;;;1.95;100.00
6680;BME280;3376;42.664;23.346;2023-02-01T00:59:13;94584.78;;;1.91;100.00
6680;BME280;3376;42.664;23.346;2023-02-01T01:01:40;94589.00;;;1.81;100.00
6680;BME280;3376;42.664;23.346;2023-02-01T01:04:07;94586.38;;;1.71;100.00
6680;BME280;3376;42.664;23.346;2023-02-01T01:06:34;94593.16;;;1.82;100.00
6680;BME280;3376;42.664;23.346;2023-02-01T01:09:04;94591.81;;;1.78;100.00
6680;BME280;3376;42.664;23.346;2023-02-01T01:11:34;94595.16;;;1.78;100.00
6680;BME280;3376;42.664;23.346;2023-02-01T01:14:01;94588.56;;;1.76;99.63
6680;BME280;3376;42.664;23.346;2023-02-01T01:16:29;94570.94;;;1.73;100.00
6680;BME280;3376;42.664;23.346;2023-02-01T01:18:57;94580.38;;;1.93;99.96
6680;BME280;3376;42.664;23.346;2023-02-01T01:21:24;94576.88;;;1.94;99.73
6680;BME280;3376;42.664;23.346;2023-02-01T01:23:51;94590.53;;;1.83;97.60
6680;BME280;3376;42.664;23.346;2023-02-01T01:26:21;94576.22;;;1.81;98.56
6680;BME280;3376;42.664;23.346;2023-02-01T01:28:49;94580.19;;;1.85;97.61
6680;BME280;3376;42.664;23.346;2023-02-01T01:31:17;94587.63;;;1.77;98.41
6680;BME280;3376;42.664;23.346;2023-02-01T01:33:47;94579.47;;;1.83;98.89
6680;BME280;3376;42.664;23.346;2023-02-01T01:36:14;94585.84;;;1.88;96.21
6680;BME280;3376;42.664;23.346;2023-02-01T01:38:41;94606.50;;;1.85;94.62
6680;BME280;3376;42.664;23.346;2023-02-01T01:41:13;94601.78;;;1.81;94.94
6680;BME280;3376;42.664;23.346;2023-02-01T01:43:55;94599.81;;;1.73;94.85
6680;BME280;3376;42.664;23.346;2023-02-01T01:46:24;94593.41;;;1.79;95.69
6680;BME280;3376;42.664;23.346;2023-02-01T01:48:56;94608.72;;;1.90;96.32
6680;BME280;3376;42.664;23.346;2023-02-01T01:51:27;94601.25;;;1.98;93.03
6680;BME280;3376;42.664;23.346;2023-02-01T01:53:59;94597.56;;;1.91;94.26
6680;BME280;3376;42.664;23.346;2023-02-01T01:56:29;94613.13;;;1.88;92.60
6680;BME280;3376;42.664;23.346;2023-02-01T01:58:58;94598.19;;;1.83;93.28
6680;BME280;3376;42.664;23.346;2023-02-01T02:01:26;94603.94;;;1.85;94.29
6680;BME280;3376;42.664;23.346;2023-02-01T02:03:53;94591.81;;;1.78;94.54
6680;BME280;3376;42.664;23.346;2023-02-01T02:06:28;94599.94;;;1.72;95.65
6680;BME280;3376;42.664;23.346;2023-02-01T02:08:57;94595.13;;;1.58;94.44
6680;BME280;3376;42.664;23.346;2023-02-01T02:11:24;94595.00;;;1.48;95.21
6680;BME280;3376;42.664;23.346;2023-02-01T02:13:52;94572.78;;;1.28;94.92
6680;BME280;3376;42.664;23.346;2023-02-01T02:16:46;94588.31;;;1.36;95.15
6680;BME280;3376;42.664;23.346;2023-02-01T02:19:59;94594.81;;;1.29;97.02
6680;BME280;3376;42.664;23.346;2023-02-01T02:23:14;94582.88;;;1.30;97.11
6680;BME280;3376;42.664;23.346;2023-02-01T02:35:26;94571.22;;;0.94;96.83
6680;BME280;3376;42.664;23.346;2023-02-01T02:38:05;94550.47;;;0.76;98.19
6680;BME280;3376;42.664;23.346;2023-02-01T02:40:42;94569.00;;;0.78;97.38
6680;BME280;3376;42.664;23.346;2023-02-01T02:43:19;94578.88;;;0.94;98.86
6680;BME280;3376;42.664;23.346;2023-02-01T02:46:06;94591.00;;;1.01;98.09
6680;BME280;3376;42.664;23.346;2023-02-01T02:49:02;94589.50;;;1.10;98.06
6680;BME280;3376;42.664;23.346;2023-02-01T02:51:37;94583.03;;;1.06;97.50
6680;BME280;3376;42.664;23.346;2023-02-01T02:54:25;94570.72;;;1.11;97.79
6680;BME280;3376;42.664;23.346;2023-02-01T02:57:13;94580.69;;;1.14;95.82
6680;BME280;3376;42.664;23.346;2023-02-01T03:00:00;94587.53;;;1.25;96.96
6680;BME280;3376;42.664;23.346;2023-02-01T03:02:46;94574.91;;;1.23;95.56
6680;BME280;3376;42.664;23.346;2023-02-01T03:05:33;94585.44;;;1.18;95.84
6680;BME280;3376;42.664;23.346;2023-02-01T03:08:04;94587.19;;;1.18;95.33
6680;BME280;3376;42.664;23.346;2023-02-01T03:10:40;94606.28;;;1.23;95.19
6680;BME280;3376;42.664;23.346;2023-02-01T03:13:11;94592.50;;;1.26;95.05
6680;BME280;3376;42.664;23.346;2023-02-01T03:15:42;94605.59;;;1.33;94.67
6680;BME280;3376;42.664;23.346;2023-02-01T03:18:13;94601.19;;;1.46;92.84
6680;BME280;3376;42.664;23.346;2023-02-01T03:20:46;94575.56;;;1.36;93.50
6680;BME280;3376;42.664;23.346;2023-02-01T03:23:18;94613.34;;;1.53;93.69
6680;BME280;3376;42.664;23.346;2023-02-01T03:25:47;94612.88;;;1.59;92.00
6680;BME280;3376;42.664;23.346;2023-02-01T03:28:15;94624.81;;;1.59;92.33
6680;BME280;3376;42.664;23.346;2023-02-01T03:30:47;94609.03;;;1.54;92.52
6680;BME280;3376;42.664;23.346;2023-02-01T03:33:17;94610.66;;;1.55;93.27
6680;BME280;3376;42.664;23.346;2023-02-01T03:35:56;94614.03;;;1.44;92.52
6680;BME280;3376;42.664;23.346;2023-02-01T03:38:30;94627.97;;;1.40;93.25
6680;BME280;3376;42.664;23.346;2023-02-01T03:41:03;94605.59;;;1.44;92.82
6680;BME280;3376;42.664;23.346;2023-02-01T03:43:39;94616.50;;;1.46;93.87
6680;BME280;3376;42.664;23.346;2023-02-01T03:46:30;94603.03;;;1.44;92.80
6680;BME280;3376;42.664;23.346;2023-02-01T03:49:02;94611.03;;;1.50;92.95
6680;BME280;3376;42.664;23.346;2023-02-01T03:51:30;94613.69;;;1.49;92.48
6680;BME280;3376;42.664;23.346;2023-02-01T03:54:01;94614.41;;;1.51;93.03
6680;BME280;3376;42.664;23.346;2023-02-01T03:56:29;94605.09;;;1.50;93.59
6680;BME280;3376;42.664;23.346;2023-02-01T03:58:58;94609.28;;;1.51;92.49
6680;BME280;3376;42.664;23.346;2023-02-01T04:01:26;94609.50;;;1.59;92.48
6680;BME280;3376;42.664;23.346;2023-02-01T04:03:53;94590.63;;;1.39;92.48
6680;BME280;3376;42.664;23.346;2023-02-01T04:06:20;94619.84;;;1.57;93.21
6680;BME280;3376;42.664;23.346;2023-02-01T04:08:47;94612.88;;;1.59;92.45
6680;BME280;3376;42.664;23.346;2023-02-01T04:11:15;94605.56;;;1.55;93.73
6680;BME280;3376;42.664;23.346;2023-02-01T04:13:42;94609.63;;;1.57;93.48
6680;BME280;3376;42.664;23.346;2023-02-01T04:16:09;94609.03;;;1.54;92.75
6680;BME280;3376;42.664;23.346;2023-02-01T04:18:35;94608.34;;;1.63;93.35
6680;BME280;3376;42.664;23.346;2023-02-01T04:21:03;94614.56;;;1.70;93.69
6680;BME280;3376;42.664;23.346;2023-02-01T04:23:30;94610.28;;;1.70;95.35
6680;BME280;3376;42.664;23.346;2023-02-01T04:25:59;94611.22;;;1.69;95.00
6680;BME280;3376;42.664;23.346;2023-02-01T04:28:28;94619.31;;;1.74;94.65
6680;BME280;3376;42.664;23.346;2023-02-01T04:30:54;94608.66;;;1.69;94.41
6680;BME280;3376;42.664;23.346;2023-02-01T04:33:21;94610.75;;;1.64;94.57
6680;BME280;3376;42.664;23.346;2023-02-01T04:35:48;94610.75;;;1.64;96.20
6680;BME280;3376;42.664;23.346;2023-02-01T04:38:15;94617.94;;;1.70;96.46
6680;BME280;3376;42.664;23.346;2023-02-01T04:40:42;94603.09;;;1.64;97.37
6680;BME280;3376;42.664;23.346;2023-02-01T04:43:08;94586.78;;;1.56;96.95
6680;BME280;3376;42.664;23.346;2023-02-01T04:45:36;94612.94;;;1.80;98.05
6680;BME280;3376;42.664;23.346;2023-02-01T04:48:04;94613.59;;;1.82;96.85
6680;BME280;3376;42.664;23.346;2023-02-01T04:50:30;94612.81;;;1.81;98.51
6680;BME280;3376;42.664;23.346;2023-02-01T04:52:57;94624.38;;;1.85;97.59
6680;BME280;3376;42.664;23.346;2023-02-01T04:55:24;94629.28;;;1.88;97.95
6680;BME280;3376;42.664;23.346;2023-02-01T04:57:50;94630.44;;;1.84;98.71
6680;BME280;3376;42.664;23.346;2023-02-01T05:00:18;94633.81;;;1.85;98.11
6680;BME280;3376;42.664;23.346;2023-02-01T05:02:46;94636.47;;;1.83;98.17
6680;BME280;3376;42.664;23.346;2023-02-01T05:05:13;94638.09;;;1.84;99.21
6680;BME280;3376;42.664;23.346;2023-02-01T05:07:39;94620.09;;;1.86;100.00
6680;BME280;3376;42.664;23.346;2023-02-01T05:10:07;94632.16;;;1.84;100.00
6680;BME280;3376;42.664;23.346;2023-02-01T05:12:34;94643.66;;;1.89;100.00
6680;BME280;3376;42.664;23.346;2023-02-01T05:15:18;94648.16;;;1.97;100.00
6680;BME280;3376;42.664;23.346;2023-02-01T05:17:46;94640.28;;;1.89;100.00
6680;BME280;3376;42.664;23.346;2023-02-01T05:20:13;94606.19;;;1.79;100.00
6680;BME280;3376;42.664;23.346;2023-02-01T05:22:41;94626.16;;;1.85;99.83
6680;BME280;3376;42.664;23.346;2023-02-01T05:25:08;94635.84;;;1.91;100.00
6680;BME280;3376;42.664;23.346;2023-02-01T05:27:35;94616.19;;;1.71;100.00
6680;BME280;3376;42.664;23.346;2023-02-01T05:30:02;94629.59;;;1.95;100.00
6680;BME280;3376;42.664;23.346;2023-02-01T05:32:30;94638.06;;;1.95;100.00
6680;BME280;3376;42.664;23.346;2023-02-01T05:34:58;94649.53;;;2.01;100.00
6680;BME280;3376;42.664;23.346;2023-02-01T05:37:24;94648.75;;;2.00;100.00
6680;BME280;3376;42.664;23.346;2023-02-01T05:39:51;94642.56;;;2.03;100.00
6680;BME280;3376;42.664;23.346;2023-02-01T05:42:18;94646.13;;;2.11;100.00
6680;BME280;3376;42.664;23.346;2023-02-01T05:44:45;94638.56;;;2.21;100.00
6680;BME280;3376;42.664;23.346;2023-02-01T05:47:11;94640.66;;;2.16;100.00
6680;BME280;3376;42.664;23.346;2023-02-01T05:49:38;94640.03;;;2.23;99.43
6680;BME280;3376;42.664;23.346;2023-02-01T05:52:06;94630.63;;;2.24;98.54
6680;BME280;3376;42.664;23.346;2023-02-01T05:54:33;94606.75;;;2.14;98.88
6680;BME280;3376;42.664;23.346;2023-02-01T05:57:00;94593.31;;;2.01;98.07
6680;BME280;3376;42.664;23.346;2023-02-01T05:59:27;94635.69;;;2.35;97.65
6680;BME280;3376;42.664;23.346;2023-02-01T06:01:53;94648.03;;;2.30;97.71
6680;BME280;3376;42.664;23.346;2023-02-01T06:04:20;94642.91;;;2.30;98.76
6680;BME280;3376;42.664;23.346;2023-02-01T06:06:47;94651.97;;;2.34;97.95
6680;BME280;3376;42.664;23.346;2023-02-01T06:09:17;94656.47;;;2.42;97.40
6680;BME280;3376;42.664;23.346;2023-02-01T06:11:44;94653.66;;;2.45;97.56
6680;BME280;3376;42.664;23.346;2023-02-01T06:14:10;94662.34;;;2.53;96.19
6680;BME280;3376;42.664;23.346;2023-02-01T06:16:37;94655.91;;;2.59;95.65
6680;BME280;3376;42.664;23.346;2023-02-01T06:19:04;94655.91;;;2.59;95.79
6680;BME280;3376;42.664;23.346;2023-02-01T06:21:30;94660.22;;;2.58;95.11
6680;BME280;3376;42.664;23.346;2023-02-01T06:23:59;94663.47;;;2.60;95.12
6680;BME280;3376;42.664;23.346;2023-02-01T06:26:28;94655.97;;;2.68;96.46
6680;BME280;3376;42.664;23.346;2023-02-01T06:28:55;94659.22;;;2.70;95.31
6680;BME280;3376;42.664;23.346;2023-02-01T06:31:22;94662.69;;;2.69;94.32
6680;BME280;3376;42.664;23.346;2023-02-01T06:33:51;94671.56;;;2.65;95.10
6680;BME280;3376;42.664;23.346;2023-02-01T06:36:18;94653.22;;;2.60;93.89
6680;BME280;3376;42.664;23.346;2023-02-01T06:38:46;94644.34;;;2.64;93.71
6680;BME280;3376;42.664;23.346;2023-02-01T06:41:13;94549.91;;;2.01;93.61
6680;BME280;3376;42.664;23.346;2023-02-01T06:43:41;94664.59;;;2.67;94.34
6680;BME280;3376;42.664;23.346;2023-02-01T06:46:12;94644.47;;;2.42;94.60
6680;BME280;3376;42.664;23.346;2023-02-01T06:48:39;94656.28;;;2.54;94.77
6680;BME280;3376;42.664;23.346;2023-02-01T06:51:06;94679.94;;;2.67;92.80
6680;BME280;3376;42.664;23.346;2023-02-01T06:53:32;94669.19;;;2.73;92.69
6680;BME280;3376;42.664;23.346;2023-02-01T06:56:01;94688.03;;;2.72;91.34
6680;BME280;3376;42.664;23.346;2023-02-01T06:58:28;94680.38;;;2.72;93.15
6680;BME280;3376;42.664;23.346;2023-02-01T07:00:56;94700.31;;;2.78;92.22
6680;BME280;3376;42.664;23.346;2023-02-01T07:03:23;94693.06;;;2.83;91.81
6680;BME280;3376;42.664;23.346;2023-02-01T07:05:55;94698.19;;;2.83;91.95
6680;BME280;3376;42.664;23.346;2023-02-01T07:08:24;94644.91;;;2.47;91.48
6680;BME280;3376;42.664;23.346;2023-02-01T07:10:51;94709.25;;;2.84;90.46
6680;BME280;3376;42.664;23.346;2023-02-01T07:13:17;94714.09;;;2.87;90.15
6680;BME280;3376;42.664;23.346;2023-02-01T07:15:44;94710.75;;;2.86;90.28
6680;BME280;3376;42.664;23.346;2023-02-01T07:18:13;94711.50;;;2.77;91.18
6680;BME280;3376;42.664;23.346;2023-02-01T07:20:40;94706.94;;;2.81;91.78
6680;BME280;3376;42.664;23.346;2023-02-01T07:23:09;94708.19;;;2.86;90.43
6680;BME280;3376;42.664;23.346;2023-02-01T07:25:36;94719.78;;;2.90;89.79
6680;BME280;3376;42.664;23.346;2023-02-01T07:28:03;94724.22;;;2.88;89.68
6680;BME280;3376;42.664;23.346;2023-02-01T07:30:29;94713.78;;;2.80;89.95
6680;BME280;3376;42.664;23.346;2023-02-01T07:32:56;94725.19;;;2.97;90.06
6680;BME280;3376;42.664;23.346;2023-02-01T07:35:27;94723.47;;;2.97;89.37
6680;BME280;3376;42.664;23.346;2023-02-01T07:37:54;94721.78;;;3.07;89.12
6680;BME280;3376;42.664;23.346;2023-02-01T07:40:21;94724.53;;;3.15;88.25
6680;BME280;3376;42.664;23.346;2023-02-01T07:42:53;94736.56;;;3.24;88.01
6680;BME280;3376;42.664;23.346;2023-02-01T07:45:20;94742.75;;;3.22;86.96
6680;BME280;3376;42.664;23.346;2023-02-01T07:47:47;94728.19;;;3.22;89.45
6680;BME280;3376;42.664;23.346;2023-02-01T07:50:14;94744.88;;;3.37;88.38
6680;BME280;3376;42.664;23.346;2023-02-01T07:52:42;94740.78;;;3.35;86.57
6680;BME280;3376;42.664;23.346;2023-02-01T07:55:09;94723.06;;;3.22;88.57
6680;BME280;3376;42.664;23.346;2023-02-01T07:57:36;94750.63;;;3.39;87.37
6680;BME280;3376;42.664;23.346;2023-02-01T08:00:03;94761.97;;;3.37;88.29
6680;BME280;3376;42.664;23.346;2023-02-01T08:02:48;94760.78;;;3.41;85.72
6680;BME280;3376;42.664;23.346;2023-02-01T08:05:14;94758.59;;;3.36;86.16
6680;BME280;3376;42.664;23.346;2023-02-01T08:07:42;94764.34;;;3.49;86.57
6680;BME280;3376;42.664;23.346;2023-02-01T08:10:09;94754.44;;;3.45;86.34
6680;BME280;3376;42.664;23.346;2023-02-01T08:12:36;94769.06;;;3.54;85.66
6680;BME280;3376;42.664;23.346;2023-02-01T08:15:04;94756.88;;;3.46;85.14
6680;BME280;3376;42.664;23.346;2023-02-01T08:17:31;94726.28;;;3.45;85.82
6680;BME280;3376;42.664;23.346;2023-02-01T08:19:57;94738.63;;;3.60;84.27
6680;BME280;3376;42.664;23.346;2023-02-01T08:22:24;94753.00;;;3.52;84.83
6680;BME280;3376;42.664;23.346;2023-02-01T08:24:52;94763.19;;;3.63;84.28
6680;BME280;3376;42.664;23.346;2023-02-01T08:27:26;94752.28;;;3.71;83.27
6680;BME280;3376;42.664;23.346;2023-02-01T08:29:53;94757.59;;;3.79;83.06
6680;BME280;3376;42.664;23.346;2023-02-01T08:32:19;94758.16;;;3.92;82.84
6680;BME280;3376;42.664;23.346;2023-02-01T08:34:46;94769.25;;;4.02;81.95
6680;BME280;3376;42.664;23.346;2023-02-01T08:37:13;94764.41;;;4.08;81.97
6680;BME280;3376;42.664;23.346;2023-02-01T08:39:40;94767.16;;;4.26;81.11
6680;BME280;3376;42.664;23.346;2023-02-01T08:42:10;94777.16;;;4.29;81.73
6680;BME280;3376;42.664;23.346;2023-02-01T08:45:01;94749.63;;;4.31;81.69
6680;BME280;3376;42.664;23.346;2023-02-01T08:47:29;94760.03;;;4.39;79.87
6680;BME280;3376;42.664;23.346;2023-02-01T08:49:56;94756.00;;;4.46;80.60
6680;BME280;3376;42.664;23.346;2023-02-01T08:52:23;94750.72;;;4.47;79.58
6680;BME280;3376;42.664;23.346;2023-02-01T08:54:49;94746.44;;;4.86;78.70
6680;BME280;3376;42.664;23.346;2023-02-01T08:57:18;94760.59;;;5.19;75.64
6680;BME280;3376;42.664;23.346;2023-02-01T08:59:44;94758.41;;;5.79;75.12
6680;BME280;3376;42.664;23.346;2023-02-01T09:02:12;94755.63;;;6.10;71.43
6680;BME280;3376;42.664;23.346;2023-02-01T09:04:39;94758.59;;;6.05;72.32
6680;BME280;3376;42.664;23.346;2023-02-01T09:07:06;94763.44;;;6.18;71.36
6680;BME280;3376;42.664;23.346;2023-02-01T09:09:33;94754.09;;;5.80;70.58
6680;BME280;3376;42.664;23.346;2023-02-01T09:12:00;94758.59;;;5.68;70.75
6680;BME280;3376;42.664;23.346;2023-02-01T09:14:28;94760.81;;;5.44;72.55
6680;BME280;3376;42.664;23.346;2023-02-01T09:16:55;94770.28;;;5.44;74.12
6680;BME280;3376;42.664;23.346;2023-02-01T09:19:21;94770.97;;;5.46;73.16
6680;BME280;3376;42.664;23.346;2023-02-01T09:21:48;94760.09;;;5.61;76.67
6680;BME280;3376;42.664;23.346;2023-02-01T09:24:15;94774.25;;;5.84;73.86
6680;BME280;3376;42.664;23.346;2023-02-01T09:26:42;94770.09;;;6.11;72.15
6680;BME280;3376;42.664;23.346;2023-02-01T09:29:09;94756.34;;;6.47;70.91
6680;BME280;3376;42.664;23.346;2023-02-01T09:31:40;94774.41;;;6.99;68.01
6680;BME280;3376;42.664;23.346;2023-02-01T09:34:07;94744.41;;;6.73;66.60
6680;BME280;3376;42.664;23.346;2023-02-01T09:36:34;94764.13;;;6.82;68.85
6680;BME280;3376;42.664;23.346;2023-02-01T09:39:01;94753.81;;;6.82;69.45
6680;BME280;3376;42.664;23.346;2023-02-01T09:41:39;94758.06;;;7.52;66.93
6680;BME280;3376;42.664;23.346;2023-02-01T09:44:18;94753.53;;;7.71;65.04
6680;BME280;3376;42.664;23.346;2023-02-01T09:46:53;94719.81;;;7.98;63.84
6680;BME280;3376;42.664;23.346;2023-02-01T09:49:26;94748.78;;;8.68;60.65
6680;BME280;3376;42.664;23.346;2023-02-01T09:51:55;94742.19;;;8.73;60.02
6680;BME280;3376;42.664;23.346;2023-02-01T09:54:25;94722.34;;;9.30;59.37
6680;BME280;3376;42.664;23.346;2023-02-01T09:56:55;94705.44;;;10.29;54.33
6680;BME280;3376;42.664;23.346;2023-02-01T09:59:30;94712.44;;;11.04;50.92
6680;BME280;3376;42.664;23.346;2023-02-01T10:02:02;94695.56;;;11.82;46.66
6680;BME280;3376;42.664;23.346;2023-02-01T10:04:30;94698.59;;;11.86;46.38
6680;BME280;3376;42.664;23.346;2023-02-01T10:07:08;94701.97;;;13.02;43.96
6680;BME280;3376;42.664;23.346;2023-02-01T10:09:44;94703.03;;;13.28;40.82
6680;BME280;3376;42.664;23.346;2023-02-01T10:12:36;94694.50;;;13.62;39.47
6680;BME280;3376;42.664;23.346;2023-02-01T10:15:22;94691.44;;;13.10;39.51
6680;BME280;3376;42.664;23.346;2023-02-01T10:18:10;94689.56;;;13.46;39.24
6680;BME280;3376;42.664;23.346;2023-02-01T10:20:52;94685.69;;;13.63;38.87
6680;BME280;3376;42.664;23.346;2023-02-01T10:23:33;94678.28;;;12.75;39.97
6680;BME280;3376;42.664;23.346;2023-02-01T10:26:05;94674.50;;;12.57;40.05
6680;BME280;3376;42.664;23.346;2023-02-01T10:28:39;94664.94;;;11.93;41.51
6680;BME280;3376;42.664;23.346;2023-02-01T10:31:08;94670.81;;;12.16;41.86
6680;BME280;3376;42.664;23.346;2023-02-01T10:33:42;94651.19;;;12.28;41.07
6680;BME280;3376;42.664;23.346;2023-02-01T10:36:15;94643.19;;;11.94;42.03
6680;BME280;3376;42.664;23.346;2023-02-01T10:38:43;94663.78;;;12.45;41.25
6680;BME280;3376;42.664;23.346;2023-02-01T10:41:12;94675.78;;;11.96;41.49
6680;BME280;3376;42.664;23.346;2023-02-01T10:43:40;94657.94;;;12.08;41.80
6680;BME280;3376;42.664;23.346;2023-02-01T10:46:07;94660.66;;;11.70;41.35
6680;BME280;3376;42.664;23.346;2023-02-01T10:48:35;94658.66;;;12.02;41.88
6680;BME280;3376;42.664;23.346;2023-02-01T10:51:06;94653.78;;;12.28;40.57
6680;BME280;3376;42.664;23.346;2023-02-01T10:53:43;94611.75;;;11.45;41.19
6680;BME280;3376;42.664;23.346;2023-02-01T10:56:12;94624.41;;;10.74;42.44
6680;BME280;3376;42.664;23.346;2023-02-01T10:58:44;94659.72;;;10.75;43.41
6680;BME280;3376;42.664;23.346;2023-02-01T11:01:16;94618.56;;;10.72;43.50
6680;BME280;3376;42.664;23.346;2023-02-01T11:03:45;94635.66;;;10.13;44.77
6680;BME280;3376;42.664;23.346;2023-02-01T11:06:28;94651.56;;;9.94;45.94
6680;BME280;3376;42.664;23.346;2023-02-01T11:08:57;94647.38;;;10.23;45.67
6680;BME280;3376;42.664;23.346;2023-02-01T11:11:24;94654.53;;;10.44;44.57
6680;BME280;3376;42.664;23.346;2023-02-01T11:13:54;94395.41;;;8.87;44.36
6680;BME280;3376;42.664;23.346;2023-02-01T11:16:21;94647.78;;;10.04;45.42
6680;BME280;3376;42.664;23.346;2023-02-01T11:18:54;94656.13;;;9.29;46.21
6680;BME280;3376;42.664;23.346;2023-02-01T11:21:23;94650.47;;;9.25;47.00
6680;BME280;3376;42.664;23.346;2023-02-01T11:23:49;94635.44;;;9.21;47.26
6680;BME280;3376;42.664;23.346;2023-02-01T11:26:21;94591.22;;;9.08;47.50
6680;BME280;3376;42.664;23.346;2023-02-01T11:28:52;94632.41;;;9.64;47.02
6680;BME280;3376;42.664;23.346;2023-02-01T11:31:20;94630.44;;;9.74;46.74
6680;BME280;3376;42.664;23.346;2023-02-01T11:33:50;94599.00;;;9.93;45.98
6680;BME280;3376;42.664;23.346;2023-02-01T11:36:23;94601.81;;;10.59;43.92
6680;BME280;3376;42.664;23.346;2023-02-01T11:38:54;94624.03;;;10.77;43.76
6680;BME280;3376;42.664;23.346;2023-02-01T11:41:22;94627.81;;;10.89;44.17
6680;BME280;3376;42.664;23.346;2023-02-01T11:43:52;94603.19;;;10.93;43.42
6680;BME280;3376;42.664;23.346;2023-02-01T11:46:22;94624.28;;;10.44;44.75
6680;BME280;3376;42.664;23.346;2023-02-01T11:48:52;94621.97;;;10.49;45.59
6680;BME280;3376;42.664;23.346;2023-02-01T11:51:42;94611.22;;;10.83;43.11
6680;BME280;3376;42.664;23.346;2023-02-01T11:54:23;94610.91;;;10.78;44.51
6680;BME280;3376;42.664;23.346;2023-02-01T11:57:03;94599.69;;;10.86;42.58
6680;BME280;3376;42.664;23.346;2023-02-01T11:59:52;94595.78;;;11.04;42.51
6680;BME280;3376;42.664;23.346;2023-02-01T12:02:54;94606.88;;;11.13;42.24
6680;BME280;3376;42.664;23.346;2023-02-01T12:05:31;94595.47;;;11.36;44.70
6680;BME280;3376;42.664;23.346;2023-02-01T12:08:18;94584.56;;;11.41;43.88
6680;BME280;3376;42.664;23.346;2023-02-01T12:10:58;94597.50;;;11.26;42.68
6680;BME280;3376;42.664;23.346;2023-02-01T12:13:38;94578.78;;;10.87;43.80
6680;BME280;3376;42.664;23.346;2023-02-01T12:16:16;94593.34;;;10.28;44.57
6680;BME280;3376;42.664;23.346;2023-02-01T12:19:18;94563.28;;;10.19;44.41
6680;BME280;3376;42.664;23.346;2023-02-01T12:21:57;94592.13;;;10.16;44.68
6680;BME280;3376;42.664;23.346;2023-02-01T12:24:48;94590.94;;;9.88;44.69
6680;BME280;3376;42.664;23.346;2023-02-01T12:30:34;94581.28;;;10.05;45.32
6680;BME280;3376;42.664;23.346;2023-02-01T12:33:13;94589.66;;;10.15;45.32
6680;BME280;3376;42.664;23.346;2023-02-01T12:36:03;94595.13;;;10.20;45.10
6680;BME280;3376;42.664;23.346;2023-02-01T12:38:44;94582.63;;;10.31;45.66
6680;BME280;3376;42.664;23.346;2023-02-01T12:41:23;94590.56;;;10.30;46.08
6680;BME280;3376;42.664;23.346;2023-02-01T12:43:56;94597.81;;;10.34;45.05
6680;BME280;3376;42.664;23.346;2023-02-01T12:46:29;94580.59;;;10.41;46.76
6680;BME280;3376;42.664;23.346;2023-02-01T12:49:01;94596.06;;;10.72;44.64
6680;BME280;3376;42.664;23.346;2023-02-01T12:51:33;94594.13;;;10.89;44.01
6680;BME280;3376;42.664;23.346;2023-02-01T12:54:04;94576.91;;;10.58;45.35
6680;BME280;3376;42.664;23.346;2023-02-01T12:56:40;94597.00;;;10.34;45.17
6680;BME280;3376;42.664;23.346;2023-02-01T12:59:17;94599.13;;;10.53;44.02
6680;BME280;3376;42.664;23.346;2023-02-01T13:01:49;94603.38;;;10.91;44.61
6680;BME280;3376;42.664;23.346;2023-02-01T13:04:27;94599.31;;;10.74;43.67
6680;BME280;3376;42.664;23.346;2023-02-01T13:07:01;94583.97;;;10.64;42.85
6680;BME280;3376;42.664;23.346;2023-02-01T13:09:37;94594.78;;;10.68;42.78
6680;BME280;3376;42.664;23.346;2023-02-01T13:12:11;94600.59;;;10.55;42.41
6680;BME280;3376;42.664;23.346;2023-02-01T13:14:43;94589.97;;;10.42;42.92
6680;BME280;3376;42.664;23.346;2023-02-01T13:17:16;94547.06;;;9.95;42.89
6680;BME280;3376;42.664;23.346;2023-02-01T13:19:50;94586.28;;;10.06;43.13
6680;BME280;3376;42.664;23.346;2023-02-01T13:22:22;94557.88;;;9.68;43.03
6680;BME280;3376;42.664;23.346;2023-02-01T13:24:53;94589.47;;;9.94;43.46
6680;BME280;3376;42.664;23.346;2023-02-01T13:27:26;94586.19;;;10.00;44.03
6680;BME280;3376;42.664;23.346;2023-02-01T13:29:58;94580.06;;;10.23;42.40
6680;BME280;3376;42.664;23.346;2023-02-01T13:35:47;94582.34;;;9.88;44.40
6680;BME280;3376;42.664;23.346;2023-02-01T13:38:49;94576.22;;;9.50;44.27
6680;BME280;3376;42.664;23.346;2023-02-01T13:41:27;94592.72;;;9.41;44.91
6680;BME280;3376;42.664;23.346;2023-02-01T13:43:59;94586.06;;;9.08;45.44
6680;BME280;3376;42.664;23.346;2023-02-01T13:46:28;94575.22;;;9.12;45.95
6680;BME280;3376;42.664;23.346;2023-02-01T13:48:58;94585.47;;;9.36;45.41
6680;BME280;3376;42.664;23.346;2023-02-01T13:51:45;94554.56;;;9.04;44.67
6680;BME280;3376;42.664;23.346;2023-02-01T13:54:25;94444.63;;;8.07;44.92